createdAt,value
2019-02-15T00:00:13.218Z,94996.41
2019-02-15T00:02:41.840Z,94999.80
2019-02-15T00:05:10.470Z,94993.86
2019-02-15T00:07:39.122Z,94997.94
2019-02-15T00:10:07.753Z,94999.98
2019-02-15T00:12:36.386Z,94998.27
2019-02-15T00:15:05.937Z,94996.78
2019-02-15T00:17:36.201Z,94998.10
2019-02-15T00:20:10.277Z,94992.41
2019-02-15T00:22:38.945Z,94999.56
2019-02-15T00:25:07.571Z,94998.02
2019-02-15T00:27:36.192Z,94997.97
2019-02-15T00:30:08.802Z,95003.30
2019-02-15T00:32:37.435Z,95000.45
2019-02-15T00:35:06.068Z,95004.33
2019-02-15T00:37:34.745Z,95005.07
2019-02-15T00:40:04.071Z,95001.56
2019-02-15T00:42:32.683Z,95001.49
2019-02-15T00:45:01.426Z,94998.64
2019-02-15T00:47:31.684Z,94997.54
2019-02-15T00:50:01.973Z,94999.66
2019-02-15T00:52:38.062Z,94995.47
2019-02-15T00:55:14.371Z,94988.80
2019-02-15T00:57:53.501Z,94985.14
2019-02-15T01:00:40.000Z,94981.62
2019-02-15T01:03:19.285Z,94982.95
2019-02-15T01:06:05.741Z,94976.80
2019-02-15T01:08:38.965Z,94981.32
2019-02-15T01:11:09.219Z,94975.06
2019-02-15T01:13:38.022Z,94975.94
2019-02-15T01:16:06.780Z,94967.27
2019-02-15T01:18:35.408Z,94974.47
2019-02-15T01:21:04.125Z,94964.81
2019-02-15T01:23:32.784Z,94964.40
2019-02-15T01:26:03.051Z,94963.78
2019-02-15T01:28:33.305Z,94967.70
2019-02-15T01:31:12.433Z,94961.18
2019-02-15T01:33:42.696Z,94970.36
2019-02-15T01:36:12.916Z,94972.16
2019-02-15T01:38:45.873Z,94975.85
2019-02-15T01:41:16.133Z,94971.40
2019-02-15T01:43:55.285Z,94969.91
2019-02-15T01:46:25.537Z,94971.67
2019-02-15T01:48:54.167Z,94981.05
2019-02-15T01:51:22.878Z,94981.89
2019-02-15T01:53:51.493Z,94984.19
2019-02-15T01:56:20.124Z,94978.58
2019-02-15T01:58:48.795Z,94980.31
2019-02-15T02:01:19.054Z,94976.03
2019-02-15T02:03:47.671Z,94979.69
2019-02-15T02:06:16.419Z,94971.09
2019-02-15T02:08:45.119Z,94976.73
2019-02-15T02:11:13.741Z,94972.75
2019-02-15T02:13:49.227Z,94977.42
2019-02-15T02:16:12.665Z,94977.12
2019-02-15T02:18:41.288Z,94969.42
2019-02-15T02:21:09.953Z,94971.41
2019-02-15T02:23:39.447Z,94967.05
2019-02-15T02:26:08.053Z,94958.00
2019-02-15T02:28:36.717Z,94966.87
2019-02-15T02:31:05.402Z,94961.05
2019-02-15T02:33:34.263Z,94963.77
2019-02-15T02:39:29.628Z,94961.13
2019-02-15T02:41:58.247Z,94948.38
2019-02-15T02:44:26.793Z,94946.26
2019-02-15T02:46:55.480Z,94944.79
2019-02-15T02:49:24.037Z,94946.48
2019-02-15T02:51:52.648Z,94950.40
2019-02-15T02:54:21.319Z,94950.69
2019-02-15T02:56:49.936Z,94948.22
2019-02-15T02:59:18.549Z,94952.88
2019-02-15T03:01:47.206Z,94949.59
2019-02-15T03:04:15.756Z,94954.99
2019-02-15T03:06:44.446Z,94955.80
2019-02-15T03:09:13.183Z,94958.38
2019-02-15T03:11:41.799Z,94966.75
2019-02-15T03:14:11.762Z,94971.58
2019-02-15T03:16:40.649Z,94960.38
2019-02-15T03:19:09.259Z,94962.86
2019-02-15T03:21:37.869Z,94967.83
2019-02-15T03:24:06.549Z,94964.01
2019-02-15T03:26:35.172Z,94958.22
2019-02-15T03:29:03.779Z,94964.35
2019-02-15T03:31:32.447Z,94959.89
2019-02-15T03:34:01.129Z,94961.77
2019-02-15T03:36:31.388Z,94956.00
2019-02-15T03:39:01.692Z,94955.57
2019-02-15T03:41:32.062Z,94968.73
2019-02-15T03:44:00.696Z,94964.41
2019-02-15T03:46:29.361Z,94966.20
2019-02-15T03:48:57.995Z,94960.55
2019-02-15T03:51:26.600Z,94968.94
2019-02-15T03:53:55.260Z,94968.40
2019-02-15T03:56:23.885Z,94973.08
2019-02-15T03:58:52.505Z,94968.75
2019-02-15T04:01:21.259Z,94960.60
2019-02-15T04:03:49.874Z,94961.23
2019-02-15T04:06:18.571Z,94975.80
2019-02-15T04:08:47.227Z,94971.30
2019-02-15T04:11:15.845Z,94968.54
2019-02-15T04:13:44.482Z,94970.33
2019-02-15T04:16:13.129Z,94976.05
2019-02-15T04:18:41.765Z,94968.23
2019-02-15T04:21:10.366Z,94968.53
2019-02-15T04:23:39.022Z,94970.33
2019-02-15T04:26:07.569Z,94976.91
2019-02-15T04:28:36.041Z,94968.42
2019-02-15T04:31:04.698Z,94968.86
2019-02-15T04:33:33.318Z,94980.92
2019-02-15T04:36:02.225Z,94988.23
2019-02-15T04:38:30.891Z,94988.94
2019-02-15T04:40:59.592Z,94987.63
2019-02-15T04:43:28.218Z,94992.71
2019-02-15T04:45:56.807Z,94994.95
2019-02-15T04:48:25.439Z,94994.31
2019-02-15T04:50:54.106Z,94996.62
2019-02-15T04:53:22.922Z,95000.13
2019-02-15T04:55:51.672Z,95002.11
2019-02-15T04:58:20.295Z,95002.06
2019-02-15T05:00:49.023Z,95010.25
2019-02-15T05:03:19.511Z,95005.12
2019-02-15T05:05:47.987Z,95008.14
2019-02-15T05:08:16.651Z,95013.55
2019-02-15T05:10:45.284Z,95014.06
2019-02-15T05:13:13.902Z,95014.26
2019-02-15T05:15:42.567Z,95016.23
2019-02-15T05:18:11.188Z,95020.49
2019-02-15T05:20:39.878Z,95014.07
2019-02-15T05:23:08.467Z,95015.92
2019-02-15T05:25:37.157Z,95033.41
2019-02-15T05:28:05.776Z,95032.08
2019-02-15T05:30:34.468Z,95026.58
2019-02-15T05:33:03.018Z,95038.22
2019-02-15T05:35:31.645Z,95040.98
2019-02-15T05:38:00.303Z,95047.48
2019-02-15T05:40:28.857Z,95052.33
2019-02-15T05:42:57.406Z,95059.10
2019-02-15T05:45:26.151Z,95056.80
2019-02-15T05:47:54.773Z,95064.75
2019-02-15T05:50:23.387Z,95062.83
2019-02-15T05:52:52.115Z,95070.78
2019-02-15T05:55:20.719Z,95073.06
2019-02-15T05:57:49.350Z,95079.94
2019-02-15T06:00:18.004Z,95084.37
2019-02-15T06:02:46.625Z,95094.91
2019-02-15T06:05:15.252Z,95092.34
2019-02-15T06:07:43.921Z,95099.11
2019-02-15T06:10:12.545Z,95105.94
2019-02-15T06:12:41.175Z,95102.73
2019-02-15T06:15:15.040Z,95109.42
2019-02-15T06:17:40.158Z,95114.27
2019-02-15T06:20:08.886Z,95115.77
2019-02-15T06:22:37.497Z,95116.70
2019-02-15T06:25:06.214Z,95119.29
2019-02-15T06:27:34.806Z,95116.17
2019-02-15T06:30:04.720Z,95111.94
2019-02-15T06:32:33.346Z,95117.05
2019-02-15T06:35:01.979Z,95116.89
2019-02-15T06:37:30.717Z,95114.25
2019-02-15T06:39:59.366Z,95120.63
2019-02-15T06:42:27.981Z,95122.91
2019-02-15T06:44:56.567Z,95130.14
2019-02-15T06:47:25.182Z,95132.09
2019-02-15T06:49:53.820Z,95123.05
2019-02-15T06:52:22.415Z,95135.51
2019-02-15T06:54:51.058Z,95132.88
2019-02-15T06:57:19.616Z,95135.13
2019-02-15T06:59:55.883Z,95142.89
2019-02-15T07:02:31.872Z,95141.45
2019-02-15T07:05:20.341Z,95133.81
2019-02-15T07:07:48.895Z,95140.65
2019-02-15T07:10:21.775Z,95145.73
2019-02-15T07:12:50.454Z,95151.36
2019-02-15T07:15:19.090Z,95156.42
2019-02-15T07:17:47.712Z,95155.70
2019-02-15T07:20:16.369Z,95163.09
2019-02-15T07:22:45.074Z,95157.60
2019-02-15T07:25:13.686Z,95146.01
2019-02-15T07:27:42.363Z,95157.73
2019-02-15T07:30:15.662Z,95151.23
2019-02-15T07:32:44.415Z,95151.81
2019-02-15T07:35:13.064Z,95152.76
2019-02-15T07:37:41.725Z,95154.02
2019-02-15T07:40:10.882Z,95147.13
2019-02-15T07:42:39.534Z,95155.20
2019-02-15T07:45:12.032Z,95155.80
2019-02-15T07:47:40.671Z,95155.11
2019-02-15T07:50:11.891Z,95154.19
2019-02-15T07:52:40.516Z,95151.81
2019-02-15T07:55:09.513Z,95147.11
2019-02-15T07:57:38.156Z,95149.41
2019-02-15T08:00:12.157Z,95141.44
2019-02-15T08:02:40.797Z,95146.90
2019-02-15T08:05:10.033Z,95144.55
2019-02-15T08:07:38.728Z,95148.31
2019-02-15T08:10:09.754Z,95150.03
2019-02-15T08:12:38.406Z,95153.09
2019-02-15T08:15:09.333Z,95149.37
2019-02-15T08:17:37.960Z,95151.69
2019-02-15T08:20:11.048Z,95154.77
2019-02-15T08:22:39.675Z,95149.28
2019-02-15T08:25:09.196Z,95154.11
2019-02-15T08:27:37.867Z,95162.33
2019-02-15T08:30:09.390Z,95167.31
2019-02-15T08:32:38.003Z,95155.92
2019-02-15T08:35:08.774Z,95160.47
2019-02-15T08:37:37.383Z,95166.83
2019-02-15T08:40:08.622Z,95163.36
2019-02-15T08:42:37.363Z,95170.09
2019-02-15T08:45:09.111Z,95176.48
2019-02-15T08:47:39.710Z,95172.36
2019-02-15T08:50:10.365Z,95170.80
2019-02-15T08:52:38.985Z,95177.69
2019-02-15T08:55:12.111Z,95184.04
2019-02-15T08:57:40.762Z,95178.67
2019-02-15T09:00:12.151Z,95174.16
2019-02-15T09:02:40.855Z,95173.16
2019-02-15T09:05:12.969Z,95179.48
2019-02-15T09:07:41.606Z,95181.47
2019-02-15T09:10:13.942Z,95174.65
2019-02-15T09:12:42.604Z,95167.16
2019-02-15T09:15:19.718Z,95170.02
2019-02-15T09:17:48.443Z,95176.63
2019-02-15T09:20:17.068Z,95183.77
2019-02-15T09:22:45.693Z,95178.95
2019-02-15T09:25:14.358Z,95186.52
2019-02-15T09:27:47.613Z,95186.70
2019-02-15T09:30:16.254Z,95191.41
2019-02-15T09:32:44.952Z,95195.41
2019-02-15T09:35:13.568Z,95188.74
2019-02-15T09:37:42.633Z,95191.88
2019-02-15T09:40:11.597Z,95192.91
2019-02-15T09:42:40.232Z,95193.38
2019-02-15T09:45:12.668Z,95186.88
2019-02-15T09:47:41.411Z,95191.02
2019-02-15T09:50:12.239Z,95185.56
2019-02-15T09:52:41.424Z,95194.73
2019-02-15T09:55:10.093Z,95194.27
2019-02-15T09:57:38.708Z,95202.62
2019-02-15T10:00:11.307Z,95202.23
2019-02-15T10:02:39.973Z,95193.25
2019-02-15T10:05:09.396Z,95190.41
2019-02-15T10:07:38.021Z,95196.59
2019-02-15T10:10:10.432Z,95202.52
2019-02-15T10:12:39.069Z,95189.69
2019-02-15T10:15:09.786Z,95191.06
2019-02-15T10:17:38.468Z,95190.91
2019-02-15T10:20:08.011Z,95194.49
2019-02-15T10:22:36.644Z,95199.64
2019-02-15T10:25:07.849Z,95212.29
2019-02-15T10:27:36.466Z,95207.63
2019-02-15T10:30:10.498Z,95194.96
2019-02-15T10:32:39.173Z,95205.63
2019-02-15T10:35:12.018Z,95199.81
2019-02-15T10:37:40.640Z,95213.13
2019-02-15T10:40:10.565Z,95207.19
2019-02-15T10:42:39.262Z,95217.15
2019-02-15T10:45:13.694Z,95221.57
2019-02-15T10:47:42.282Z,95218.12
2019-02-15T10:50:11.698Z,95228.41
2019-02-15T10:52:40.333Z,95222.39
2019-02-15T10:55:09.392Z,95215.84
2019-02-15T10:57:38.023Z,95232.52
2019-02-15T11:00:11.678Z,95228.45
2019-02-15T11:02:40.348Z,95225.51
2019-02-15T11:05:09.442Z,95228.80
2019-02-15T11:07:38.134Z,95217.64
2019-02-15T11:10:09.173Z,95226.52
2019-02-15T11:12:37.794Z,95219.69
2019-02-15T11:15:11.683Z,95224.77
2019-02-15T11:17:40.353Z,95233.87
2019-02-15T11:20:11.653Z,95242.08
2019-02-15T11:22:40.277Z,95236.77
2019-02-15T11:25:10.826Z,95230.39
2019-02-15T11:27:39.530Z,95234.39
2019-02-15T11:30:11.003Z,95244.06
2019-02-15T11:32:39.657Z,95239.70
2019-02-15T11:35:14.278Z,95230.83
2019-02-15T11:37:42.992Z,95246.58
2019-02-15T11:40:15.431Z,95222.90
2019-02-15T11:42:44.067Z,95223.84
2019-02-15T11:45:13.897Z,95221.27
2019-02-15T11:47:42.678Z,95230.41
2019-02-15T11:50:15.117Z,95226.34
2019-02-15T11:52:43.736Z,95225.55
2019-02-15T11:55:12.488Z,95231.05
2019-02-15T11:57:41.114Z,95240.34
2019-02-15T12:00:24.079Z,95241.99
2019-02-15T12:02:52.701Z,95238.53
2019-02-15T12:05:21.349Z,95240.18
2019-02-15T12:07:50.033Z,95233.98
2019-02-15T12:10:18.724Z,95234.65
2019-02-15T12:12:47.356Z,95239.36
2019-02-15T12:15:16.015Z,95237.98
2019-02-15T12:17:44.633Z,95237.63
2019-02-15T12:20:14.654Z,95237.02
2019-02-15T12:22:43.358Z,95232.51
2019-02-15T12:25:12.000Z,95226.69
2019-02-15T12:27:40.616Z,95227.47
2019-02-15T12:30:13.927Z,95229.62
2019-02-15T12:32:42.626Z,95226.33
2019-02-15T12:35:11.725Z,95233.59
2019-02-15T12:37:40.388Z,95236.27
2019-02-15T12:40:10.895Z,95234.95
2019-02-15T12:42:39.588Z,95232.52
2019-02-15T12:45:11.085Z,95238.73
2019-02-15T12:47:39.774Z,95236.91
2019-02-15T12:50:14.283Z,95226.48
2019-02-15T12:52:43.017Z,95220.73
2019-02-15T12:55:11.640Z,95228.77
2019-02-15T12:57:40.340Z,95221.82
2019-02-15T13:00:18.229Z,95214.84
2019-02-15T13:02:46.917Z,95207.84
2019-02-15T13:05:15.558Z,95208.37
2019-02-15T13:07:44.405Z,95202.03
2019-02-15T13:10:14.963Z,95202.02
2019-02-15T13:12:43.675Z,95198.03
2019-02-15T13:15:12.697Z,95203.88
2019-02-15T13:17:41.322Z,95194.97
2019-02-15T13:20:11.486Z,95203.75
2019-02-15T13:22:40.168Z,95207.19
2019-02-15T13:25:09.161Z,95212.33
2019-02-15T13:27:37.780Z,95214.14
2019-02-15T13:30:12.119Z,95215.27
2019-02-15T13:32:40.939Z,95213.47
2019-02-15T13:35:15.252Z,95214.95
2019-02-15T13:37:44.020Z,95217.83
2019-02-15T13:40:12.730Z,95225.81
2019-02-15T13:42:41.431Z,95221.24
2019-02-15T13:45:12.815Z,95227.91
2019-02-15T13:47:41.428Z,95230.16
2019-02-15T13:50:12.686Z,95229.16
2019-02-15T13:52:41.344Z,95237.55
2019-02-15T13:55:10.754Z,95237.07
2019-02-15T13:57:39.462Z,95241.45
2019-02-15T14:00:12.983Z,95236.67
2019-02-15T14:02:41.678Z,95236.69
2019-02-15T14:05:13.435Z,95237.16
2019-02-15T14:07:42.160Z,95240.27
2019-02-15T14:10:14.548Z,95239.46
2019-02-15T14:12:43.349Z,95241.66
2019-02-15T14:15:12.680Z,95237.37
2019-02-15T14:17:45.551Z,95240.42
2019-02-15T14:20:14.803Z,95236.64
2019-02-15T14:22:43.468Z,95225.77
2019-02-15T14:25:12.555Z,95228.31
2019-02-15T14:27:41.249Z,95223.84
2019-02-15T14:30:11.790Z,95222.50
2019-02-15T14:32:40.481Z,95212.35
2019-02-15T14:35:11.024Z,95215.80
2019-02-15T14:37:39.688Z,95219.63
2019-02-15T14:40:10.694Z,95216.72
2019-02-15T14:42:39.870Z,95221.19
2019-02-15T14:45:10.804Z,95211.65
2019-02-15T14:47:39.504Z,95211.83
2019-02-15T14:50:09.730Z,95213.19
2019-02-15T14:52:38.432Z,95217.45
2019-02-15T14:55:09.126Z,95220.07
2019-02-15T14:57:37.810Z,95222.97
2019-02-15T15:00:12.183Z,95236.97
2019-02-15T15:02:40.902Z,95233.70
2019-02-15T15:05:10.741Z,95235.02
2019-02-15T15:07:39.498Z,95231.48
2019-02-15T15:10:10.060Z,95230.63
2019-02-15T15:12:38.768Z,95231.82
2019-02-15T15:15:12.535Z,95225.66
2019-02-15T15:17:41.247Z,95215.75
2019-02-15T15:20:11.683Z,95220.61
2019-02-15T15:22:40.408Z,95218.42
2019-02-15T15:25:11.653Z,95221.87
2019-02-15T15:27:40.367Z,95223.06
2019-02-15T15:30:11.831Z,95210.94
2019-02-15T15:32:40.533Z,95221.09
2019-02-15T15:35:10.731Z,95224.55
2019-02-15T15:37:39.482Z,95229.71
2019-02-15T15:40:11.068Z,95233.86
2019-02-15T15:42:39.994Z,95230.87
2019-02-15T15:45:10.737Z,95237.52
2019-02-15T15:47:39.432Z,95239.66
2019-02-15T15:50:10.778Z,95245.66
2019-02-15T15:52:39.503Z,95243.61
2019-02-15T15:55:10.964Z,95242.09
2019-02-15T15:57:39.647Z,95252.60
2019-02-15T16:00:11.365Z,95244.72
2019-02-15T16:02:40.054Z,95258.60
2019-02-15T16:05:09.457Z,95261.70
2019-02-15T16:07:38.202Z,95266.52
2019-02-15T16:10:09.787Z,95268.87
2019-02-15T16:12:38.478Z,95273.13
2019-02-15T16:15:09.706Z,95276.06
2019-02-15T16:17:38.401Z,95275.77
2019-02-15T16:20:09.493Z,95285.68
2019-02-15T16:22:38.224Z,95283.52
2019-02-15T16:25:08.261Z,95288.53
2019-02-15T16:30:14.901Z,95289.38
2019-02-15T16:32:43.599Z,95295.23
2019-02-15T16:35:12.310Z,95291.59
2019-02-15T16:37:41.033Z,95296.83
2019-02-15T16:40:16.394Z,95301.15
2019-02-15T16:42:45.214Z,95308.54
2019-02-15T16:45:15.717Z,95300.06
2019-02-15T16:47:44.396Z,95308.02
2019-02-15T16:50:13.790Z,95317.48
2019-02-15T16:52:42.637Z,95316.70
2019-02-15T16:55:13.113Z,95325.41
2019-02-15T16:57:41.759Z,95324.06
2019-02-15T17:00:12.497Z,95331.73
2019-02-15T17:02:41.208Z,95331.98
2019-02-15T17:05:10.103Z,95337.48
2019-02-15T17:07:38.830Z,95334.88
2019-02-15T17:10:11.561Z,95345.70
2019-02-15T17:12:40.251Z,95348.09
2019-02-15T17:15:13.979Z,95360.38
2019-02-15T17:17:42.673Z,95359.70
2019-02-15T17:20:11.472Z,95359.08
2019-02-15T17:22:40.251Z,95359.69
2019-02-15T17:25:12.341Z,95363.66
2019-02-15T17:27:41.062Z,95373.39
2019-02-15T17:30:11.191Z,95368.14
2019-02-15T17:32:39.877Z,95371.03
2019-02-15T17:35:10.475Z,95375.52
2019-02-15T17:37:39.161Z,95378.14
2019-02-15T17:40:15.401Z,95381.06
2019-02-15T17:42:44.148Z,95378.41
2019-02-15T17:45:13.270Z,95373.13
2019-02-15T17:47:42.068Z,95379.20
2019-02-15T17:50:12.101Z,95375.78
2019-02-15T17:52:42.253Z,95377.06
2019-02-15T17:55:11.260Z,95374.41
2019-02-15T17:57:41.524Z,95372.34
2019-02-15T18:00:14.098Z,95370.52
2019-02-15T18:02:42.804Z,95375.80
2019-02-15T18:05:17.688Z,95374.46
2019-02-15T18:07:48.767Z,95373.42
2019-02-15T18:10:17.472Z,95372.89
2019-02-15T18:12:46.151Z,95373.06
2019-02-15T18:15:15.000Z,95380.53
2019-02-15T18:17:43.682Z,95379.89
2019-02-15T18:20:12.781Z,95390.21
2019-02-15T18:22:41.514Z,95386.75
2019-02-15T18:25:10.196Z,95383.63
2019-02-15T18:27:38.881Z,95383.67
2019-02-15T18:30:10.676Z,95386.06
2019-02-15T18:32:39.367Z,95380.00
2019-02-15T18:35:08.157Z,95398.74
2019-02-15T18:37:36.882Z,95386.86
2019-02-15T18:40:08.363Z,95385.54
2019-02-15T18:42:37.053Z,95385.80
2019-02-15T18:45:11.522Z,95388.66
2019-02-15T18:47:40.206Z,95397.42
2019-02-15T18:50:09.990Z,95397.13
2019-02-15T18:52:38.710Z,95399.27
2019-02-15T18:55:09.617Z,95389.41
2019-02-15T18:57:38.310Z,95389.48
2019-02-15T19:00:13.858Z,95392.78
2019-02-15T19:02:42.955Z,95396.67
2019-02-15T19:05:12.648Z,95404.75
2019-02-15T19:07:41.387Z,95397.34
2019-02-15T19:10:12.681Z,95395.13
2019-02-15T19:12:41.376Z,95386.90
2019-02-15T19:15:14.277Z,95395.50
2019-02-15T19:17:42.976Z,95386.96
2019-02-15T19:20:14.353Z,95381.33
2019-02-15T19:22:43.167Z,95385.28
2019-02-15T19:25:16.420Z,95389.85
2019-02-15T19:27:45.098Z,95393.73
2019-02-15T19:30:16.486Z,95389.77
2019-02-15T19:32:45.247Z,95394.20
2019-02-15T19:35:14.071Z,95388.84
2019-02-15T19:37:42.794Z,95389.94
2019-02-15T19:40:14.032Z,95389.20
2019-02-15T19:42:46.790Z,95392.75
2019-02-15T19:45:20.222Z,95400.06
2019-02-15T19:47:48.900Z,95394.19
2019-02-15T19:50:18.432Z,95394.98
2019-02-15T19:52:48.506Z,95398.13
2019-02-15T19:55:17.242Z,95392.17
2019-02-15T19:57:47.589Z,95406.38
2019-02-15T20:00:19.769Z,95397.17
2019-02-15T20:02:48.566Z,95401.11
2019-02-15T20:05:17.306Z,95390.02
2019-02-15T20:07:48.512Z,95393.08
2019-02-15T20:10:22.352Z,95392.41
2019-02-15T20:12:51.124Z,95386.64
2019-02-15T20:15:19.817Z,95387.67
2019-02-15T20:17:48.504Z,95386.42
2019-02-15T20:20:18.029Z,95389.09
2019-02-15T20:22:46.717Z,95385.32
2019-02-15T20:25:15.397Z,95384.48
2019-02-15T20:27:44.121Z,95388.55
2019-02-15T20:30:21.026Z,95373.92
2019-02-15T20:32:49.771Z,95377.38
2019-02-15T20:35:18.463Z,95382.59
2019-02-15T20:37:48.608Z,95378.56
2019-02-15T20:40:17.380Z,95384.19
2019-02-15T20:42:46.085Z,95388.08
2019-02-15T20:45:22.677Z,95384.63
2019-02-15T20:47:51.606Z,95395.84
2019-02-15T20:50:20.394Z,95388.38
2019-02-15T20:52:49.099Z,95389.77
2019-02-15T20:55:19.747Z,95388.97
2019-02-15T20:57:48.445Z,95390.56
2019-02-15T21:00:30.532Z,95387.11
2019-02-15T21:02:59.228Z,95389.77
2019-02-15T21:05:27.920Z,95394.23
2019-02-15T21:07:56.640Z,95385.55
2019-02-15T21:10:25.336Z,95386.85
2019-02-15T21:12:54.028Z,95394.50
2019-02-15T21:15:24.340Z,95393.18
2019-02-15T21:17:53.114Z,95395.55
2019-02-15T21:20:21.810Z,95397.95
2019-02-15T21:22:50.540Z,95404.76
2019-02-15T21:25:19.232Z,95398.48
2019-02-15T21:27:47.918Z,95406.91
2019-02-15T21:30:17.751Z,95402.12
2019-02-15T21:32:46.398Z,95406.38
2019-02-15T21:35:15.093Z,95410.83
2019-02-15T21:37:43.821Z,95415.32
2019-02-15T21:40:17.155Z,95418.67
2019-02-15T21:42:45.850Z,95411.70
2019-02-15T21:45:14.894Z,95416.26
2019-02-15T21:47:43.682Z,95413.50
2019-02-15T21:50:17.295Z,95412.22
2019-02-15T21:52:44.559Z,95410.08
2019-02-15T21:55:15.429Z,95417.70
2019-02-15T21:57:44.115Z,95413.52
2019-02-15T22:00:28.263Z,95409.30
2019-02-15T22:02:56.959Z,95401.88
2019-02-15T22:05:25.645Z,95415.34
2019-02-15T22:07:54.377Z,95409.04
2019-02-15T22:10:23.081Z,95405.86
2019-02-15T22:12:51.768Z,95402.94
2019-02-15T22:15:20.427Z,95407.59
2019-02-15T22:17:49.108Z,95409.24
2019-02-15T22:20:26.229Z,95409.83
2019-02-15T22:22:48.650Z,95406.91
2019-02-15T22:25:17.266Z,95400.59
2019-02-15T22:27:45.963Z,95406.13
2019-02-15T22:30:16.131Z,95413.77
2019-02-15T22:32:44.887Z,95413.26
2019-02-15T22:35:13.521Z,95404.80
2019-02-15T22:37:42.186Z,95414.28
2019-02-15T22:40:30.989Z,95411.64
2019-02-15T22:43:02.512Z,95410.98
2019-02-15T22:45:31.126Z,95417.15
2019-02-15T22:47:59.680Z,95410.47
2019-02-15T22:50:35.602Z,95412.81
2019-02-15T22:52:58.599Z,95407.14
2019-02-15T22:55:27.212Z,95406.73
2019-02-15T22:57:55.880Z,95402.67
2019-02-15T23:00:29.028Z,95404.36
2019-02-15T23:02:57.572Z,95403.83
2019-02-15T23:05:26.229Z,95404.14
2019-02-15T23:07:54.856Z,95410.41
2019-02-15T23:10:23.472Z,95411.27
2019-02-15T23:12:52.077Z,95407.98
2019-02-15T23:15:20.956Z,95407.18
2019-02-15T23:17:49.573Z,95414.03
2019-02-15T23:20:18.212Z,95411.13
2019-02-15T23:22:46.754Z,95404.89
2019-02-15T23:25:15.377Z,95401.53
2019-02-15T23:27:44.020Z,95408.79
2019-02-15T23:30:12.634Z,95403.55
2019-02-15T23:32:41.182Z,95405.98
2019-02-15T23:35:09.836Z,95418.28
2019-02-15T23:37:38.449Z,95412.08
2019-02-15T23:40:07.070Z,95410.64
2019-02-15T23:42:35.723Z,95403.52
2019-02-15T23:45:04.942Z,95406.80
2019-02-15T23:47:33.555Z,95408.89
2019-02-15T23:50:02.143Z,95415.27
2019-02-15T23:52:30.755Z,95405.22
2019-02-15T23:54:59.377Z,95401.11
2019-02-15T23:57:27.966Z,95407.19
2019-02-15T23:59:56.600Z,95406.78
